Time;durP1;ratioP1;P1;durP2;ratioP2;P2;SDS_P1;SDS_P2;PMS_P1;PMS_P2;Temp;Humidity;BMP_temperature;BMP_pressure;BME280_temperature;BME280_humidity;BME280_pressure;Samples;Min_cycle;Max_cycle;Signal;HPM_P1;HPM_P2
2023/11/29 00:01:05;;;;;;;;;;;1.00;82.80;;;;;;5047821;28;19936;-73
2023/11/29 00:03:40;;;;;;;;;;;1.00;82.80;;;;;;5044754;28;19933;-74
2023/11/29 00:06:13;;;;;;;;;;;1.10;82.80;;;;;;5048270;28;19928;-74
2023/11/29 00:08:40;;;;;;;;;;;1.00;82.70;;;;;;5040124;28;19932;-72
2023/11/29 00:11:13;;;;;;;;;;;1.00;82.70;;;;;;5040414;28;20264;-73
2023/11/29 00:13:46;;;;;;;;;;;1.00;82.70;;;;;;5049914;28;19928;-75
2023/11/29 00:16:20;;;;;;;;;;;0.90;82.70;;;;;;5045951;28;19998;-73
2023/11/29 00:18:54;;;;;;;;;;;0.90;82.70;;;;;;5047375;28;19928;-74
2023/11/29 00:21:28;;;;;;;;;;;0.90;82.80;;;;;;5050197;28;20429;-75
2023/11/29 00:24:00;;;;;;;;;;;0.90;82.80;;;;;;5050500;28;19929;-74
2023/11/29 00:26:33;;;;;;;;;;;0.90;82.70;;;;;;5051587;28;20019;-72
2023/11/29 00:29:06;;;;;;;;;;;0.90;82.90;;;;;;5047427;28;19928;-74
2023/11/29 00:31:40;;;;;;;;;;;0.90;82.90;;;;;;5033414;28;19935;-62
2023/11/29 00:34:15;;;;;;;;;;;0.90;82.70;;;;;;5041375;28;19924;-63
2023/11/29 00:36:51;;;;;;;;;;;0.90;82.80;;;;;;5031141;28;19932;-62
2023/11/29 00:39:30;;;;;;;;;;;0.80;82.70;;;;;;5049645;28;20015;-62
2023/11/29 00:42:04;;;;;;;;;;;0.80;82.80;;;;;;5046058;28;20023;-62
2023/11/29 00:44:36;;;;;;;;;;;0.90;82.90;;;;;;5046193;28;19925;-62
2023/11/29 00:47:10;;;;;;;;;;;0.90;82.90;;;;;;5026701;28;19968;-62
2023/11/29 00:49:44;;;;;;;;;;;0.90;82.90;;;;;;5018129;28;19931;-62
2023/11/29 00:52:17;;;;;;;;;;;0.90;82.80;;;;;;5044084;28;19932;-63
2023/11/29 00:54:50;;;;;;;;;;;0.80;82.80;;;;;;5044377;28;19933;-66
2023/11/29 00:57:23;;;;;;;;;;;0.80;83.00;;;;;;5045007;28;19924;-62
2023/11/29 00:59:56;;;;;;;;;;;0.90;83.00;;;;;;5043156;28;20031;-63
2023/11/29 01:02:29;;;;;;;;;;;0.80;83.00;;;;;;5045654;28;20378;-63
2023/11/29 01:05:04;;;;;;;;;;;0.90;83.00;;;;;;5046310;28;19925;-63
2023/11/29 01:07:37;;;;;;;;;;;0.90;83.00;;;;;;5048362;28;20029;-62
2023/11/29 01:10:10;;;;;;;;;;;0.90;82.90;;;;;;5019236;28;19932;-63
2023/11/29 01:12:44;;;;;;;;;;;0.80;83.00;;;;;;5024196;28;20011;-62
2023/11/29 01:15:11;;;;;;;;;;;0.80;82.80;;;;;;5042406;28;19940;-62
2023/11/29 01:17:44;;;;;;;;;;;0.80;82.90;;;;;;5041799;28;19959;-62
2023/11/29 01:20:26;;;;;;;;;;;0.80;82.90;;;;;;5030400;28;19940;-63
2023/11/29 01:22:58;;;;;;;;;;;0.80;82.90;;;;;;5050601;28;19995;-62
2023/11/29 01:25:31;;;;;;;;;;;0.80;82.90;;;;;;5046004;28;20397;-63
2023/11/29 01:28:06;;;;;;;;;;;0.80;82.80;;;;;;5045980;28;20315;-63
2023/11/29 01:30:38;;;;;;;;;;;0.80;82.90;;;;;;5047668;28;19932;-61
2023/11/29 01:33:11;;;;;;;;;;;0.70;82.90;;;;;;5044572;28;19933;-63
2023/11/29 01:35:46;;;;;;;;;;;0.70;83.00;;;;;;5036122;28;19924;-63
2023/11/29 01:38:20;;;;;;;;;;;0.60;83.00;;;;;;5047062;28;19929;-61
2023/11/29 01:40:53;;;;;;;;;;;0.60;83.10;;;;;;5046928;28;19983;-62
2023/11/29 01:43:27;;;;;;;;;;;0.60;83.10;;;;;;5032488;28;19924;-61
2023/11/29 01:46:00;;;;;;;;;;;0.60;83.10;;;;;;5050503;28;19925;-61
2023/11/29 01:48:33;;;;;;;;;;;0.60;83.00;;;;;;5042823;28;19925;-63
2023/11/29 01:51:09;;;;;;;;;;;0.60;82.90;;;;;;5043908;28;19924;-61
2023/11/29 01:53:43;;;;;;;;;;;0.70;83.00;;;;;;5049975;28;20003;-62
2023/11/29 01:56:19;;;;;;;;;;;0.60;83.00;;;;;;5042856;28;20023;-62
2023/11/29 01:58:53;;;;;;;;;;;0.60;83.00;;;;;;5046009;28;19932;-61
2023/11/29 02:01:26;;;;;;;;;;;0.60;82.90;;;;;;5038955;28;19932;-62
2023/11/29 02:04:00;;;;;;;;;;;0.60;82.90;;;;;;5023085;28;19948;-60
2023/11/29 02:06:34;;;;;;;;;;;0.60;82.90;;;;;;5045573;28;19932;-61
2023/11/29 02:09:09;;;;;;;;;;;0.60;82.90;;;;;;5044097;28;19991;-60
2023/11/29 02:11:44;;;;;;;;;;;0.60;82.80;;;;;;5045352;28;19975;-63
2023/11/29 02:14:17;;;;;;;;;;;0.60;83.00;;;;;;5029933;28;20574;-61
2023/11/29 02:16:57;;;;;;;;;;;0.50;82.90;;;;;;5031038;28;20817;-65
2023/11/29 02:19:30;;;;;;;;;;;0.50;82.80;;;;;;5043888;28;19933;-62
2023/11/29 02:22:05;;;;;;;;;;;0.50;82.80;;;;;;5040503;28;19925;-62
2023/11/29 02:24:41;;;;;;;;;;;0.50;82.80;;;;;;5038797;28;19933;-61
2023/11/29 02:27:15;;;;;;;;;;;0.40;82.90;;;;;;5046032;28;19924;-61
2023/11/29 02:29:48;;;;;;;;;;;0.40;82.80;;;;;;5042551;28;19929;-63
2023/11/29 02:32:21;;;;;;;;;;;0.40;82.90;;;;;;5046560;28;19931;-62
2023/11/29 02:34:54;;;;;;;;;;;0.40;82.80;;;;;;5028819;28;20394;-63
2023/11/29 02:37:27;;;;;;;;;;;0.40;82.90;;;;;;5026922;28;19928;-61
2023/11/29 02:40:00;;;;;;;;;;;0.40;82.80;;;;;;5045387;28;19964;-62
2023/11/29 02:42:41;;;;;;;;;;;0.40;82.70;;;;;;5046385;28;19936;-62
2023/11/29 02:45:15;;;;;;;;;;;0.40;82.80;;;;;;5046729;28;19929;-62
2023/11/29 02:47:47;;;;;;;;;;;0.40;83.00;;;;;;5049264;28;19929;-61
2023/11/29 02:50:21;;;;;;;;;;;0.40;82.60;;;;;;5046527;28;20405;-60
2023/11/29 02:52:53;;;;;;;;;;;0.40;82.70;;;;;;5044006;28;19929;-62
2023/11/29 02:55:26;;;;;;;;;;;0.30;82.70;;;;;;5039911;28;19933;-60
2023/11/29 02:58:01;;;;;;;;;;;0.30;82.70;;;;;;5028938;28;19939;-62
2023/11/29 03:00:34;;;;;;;;;;;0.30;82.80;;;;;;5027265;28;19932;-62
2023/11/29 03:03:08;;;;;;;;;;;0.30;82.60;;;;;;5049197;28;19925;-61
2023/11/29 03:05:42;;;;;;;;;;;0.30;82.60;;;;;;5026121;28;19928;-61
2023/11/29 03:08:14;;;;;;;;;;;0.20;82.70;;;;;;5049297;28;19925;-62
2023/11/29 03:10:41;;;;;;;;;;;0.20;82.60;;;;;;5050085;28;19933;-60
2023/11/29 03:13:16;;;;;;;;;;;0.20;82.70;;;;;;5045358;28;19937;-60
2023/11/29 03:15:49;;;;;;;;;;;0.20;82.70;;;;;;5048909;28;20031;-61
2023/11/29 03:18:22;;;;;;;;;;;0.20;82.80;;;;;;5047851;28;20442;-60
2023/11/29 03:20:55;;;;;;;;;;;0.20;82.60;;;;;;5048891;28;19932;-61
2023/11/29 03:23:28;;;;;;;;;;;0.20;82.70;;;;;;5050732;28;19947;-61
2023/11/29 03:26:03;;;;;;;;;;;0.10;82.80;;;;;;5040477;28;19953;-62
2023/11/29 03:28:41;;;;;;;;;;;0.10;82.80;;;;;;5027102;28;19979;-62
2023/11/29 03:31:14;;;;;;;;;;;0.10;82.80;;;;;;5022693;28;19974;-60
2023/11/29 03:33:48;;;;;;;;;;;0.10;82.80;;;;;;5047469;28;19968;-60
2023/11/29 03:36:20;;;;;;;;;;;0.20;82.70;;;;;;5050603;28;20362;-60
2023/11/29 03:38:54;;;;;;;;;;;0.20;82.70;;;;;;5028206;28;20290;-60
2023/11/29 03:41:27;;;;;;;;;;;0.20;82.80;;;;;;5050818;28;19932;-62
2023/11/29 03:44:02;;;;;;;;;;;0.20;82.90;;;;;;5030752;28;19968;-61
2023/11/29 03:46:38;;;;;;;;;;;0.20;82.90;;;;;;5047664;28;19929;-61
2023/11/29 03:49:12;;;;;;;;;;;0.20;83.00;;;;;;5037285;28;19929;-60
2023/11/29 03:51:45;;;;;;;;;;;0.20;83.10;;;;;;5049721;28;19992;-59
2023/11/29 03:54:18;;;;;;;;;;;0.20;83.30;;;;;;5043391;28;19929;-61
2023/11/29 03:56:52;;;;;;;;;;;0.20;83.10;;;;;;5055586;28;20302;-61
2023/11/29 03:59:27;;;;;;;;;;;0.20;83.20;;;;;;5026652;28;20019;-76
2023/11/29 04:02:01;;;;;;;;;;;0.20;83.10;;;;;;5053589;28;20520;-77
2023/11/29 04:04:29;;;;;;;;;;;0.30;83.20;;;;;;5029771;28;20004;-76
2023/11/29 04:07:03;;;;;;;;;;;0.30;83.20;;;;;;5055215;28;19932;-74
2023/11/29 04:09:37;;;;;;;;;;;0.30;83.10;;;;;;5047032;28;19974;-73
2023/11/29 04:12:11;;;;;;;;;;;0.20;83.10;;;;;;5051314;28;19932;-75
2023/11/29 04:14:45;;;;;;;;;;;0.30;83.10;;;;;;5031965;28;19924;-78
2023/11/29 04:17:19;;;;;;;;;;;0.30;83.20;;;;;;5034095;28;20346;-78
2023/11/29 04:19:46;;;;;;;;;;;0.30;83.20;;;;;;5035253;28;20049;-76
2023/11/29 04:22:18;;;;;;;;;;;0.30;83.30;;;;;;5045052;28;20015;-75
2023/11/29 04:24:52;;;;;;;;;;;0.20;83.10;;;;;;5053205;28;19924;-76
2023/11/29 04:27:24;;;;;;;;;;;0.20;82.90;;;;;;5052410;28;20389;-75
2023/11/29 04:29:59;;;;;;;;;;;0.20;83.00;;;;;;5027940;28;20016;-77
2023/11/29 04:32:33;;;;;;;;;;;0.20;82.90;;;;;;5026351;28;20345;-75
2023/11/29 04:35:06;;;;;;;;;;;0.20;82.80;;;;;;5027195;28;19924;-78
2023/11/29 04:37:46;;;;;;;;;;;0.20;82.70;;;;;;5049305;28;19940;-76
2023/11/29 04:40:26;;;;;;;;;;;0.10;82.90;;;;;;5033183;28;19932;-76
2023/11/29 04:42:59;;;;;;;;;;;0.20;82.80;;;;;;5051640;28;19935;-76
2023/11/29 04:45:34;;;;;;;;;;;0.20;82.70;;;;;;5024663;28;19925;-78
2023/11/29 04:48:07;;;;;;;;;;;0.20;82.50;;;;;;5051174;28;19933;-77
2023/11/29 04:50:40;;;;;;;;;;;0.00;82.60;;;;;;5051181;28;20015;-78
2023/11/29 04:53:14;;;;;;;;;;;0.00;82.90;;;;;;5053777;28;19949;-74
2023/11/29 04:55:48;;;;;;;;;;;0.00;82.90;;;;;;5047938;28;19986;-75
2023/11/29 04:58:22;;;;;;;;;;;0.00;83.10;;;;;;5050695;28;19940;-77
2023/11/29 05:00:56;;;;;;;;;;;0.10;83.10;;;;;;5052942;28;19932;-76
2023/11/29 05:03:29;;;;;;;;;;;0.10;83.00;;;;;;5050148;28;20343;-76
2023/11/29 05:06:03;;;;;;;;;;;0.20;83.00;;;;;;5049895;28;19932;-75
2023/11/29 05:08:36;;;;;;;;;;;0.10;83.00;;;;;;5051741;28;19956;-74
2023/11/29 05:11:16;;;;;;;;;;;0.10;83.10;;;;;;5049052;28;19929;-63
2023/11/29 05:13:49;;;;;;;;;;;0.10;83.20;;;;;;5050069;28;20463;-62
2023/11/29 05:16:24;;;;;;;;;;;0.10;83.10;;;;;;5048762;28;19928;-63
2023/11/29 05:18:58;;;;;;;;;;;0.10;83.30;;;;;;5046993;28;19933;-62
2023/11/29 05:21:26;;;;;;;;;;;0.10;83.30;;;;;;5046960;28;19937;-63
2023/11/29 05:23:58;;;;;;;;;;;0.10;83.40;;;;;;5049486;28;20019;-62
2023/11/29 05:26:32;;;;;;;;;;;0.10;83.40;;;;;;5049024;28;19932;-64
2023/11/29 05:29:05;;;;;;;;;;;0.10;83.60;;;;;;5036935;28;19933;-63
2023/11/29 05:31:40;;;;;;;;;;;0.10;83.80;;;;;;5041218;28;20024;-61
2023/11/29 05:34:14;;;;;;;;;;;0.20;83.80;;;;;;5049741;28;19928;-63
2023/11/29 05:36:46;;;;;;;;;;;0.20;83.80;;;;;;5050001;28;19933;-62
2023/11/29 05:39:19;;;;;;;;;;;0.20;83.80;;;;;;5047590;28;19931;-63
2023/11/29 05:41:53;;;;;;;;;;;0.20;83.90;;;;;;5049675;28;19971;-62
2023/11/29 05:44:27;;;;;;;;;;;0.20;83.80;;;;;;5049149;28;19929;-62
2023/11/29 05:47:01;;;;;;;;;;;0.20;84.00;;;;;;5048440;28;19929;-63
2023/11/29 05:49:34;;;;;;;;;;;0.20;83.90;;;;;;5047335;28;20330;-63
2023/11/29 05:52:08;;;;;;;;;;;0.10;84.10;;;;;;5047934;28;20379;-63
2023/11/29 05:54:41;;;;;;;;;;;0.10;84.30;;;;;;5048415;28;19972;-61
2023/11/29 05:57:13;;;;;;;;;;;0.20;84.40;;;;;;5049802;28;19964;-63
2023/11/29 05:59:40;;;;;;;;;;;0.10;84.40;;;;;;5050771;28;19929;-62
2023/11/29 06:02:15;;;;;;;;;;;0.20;84.60;;;;;;5049035;28;20276;-63
2023/11/29 06:04:49;;;;;;;;;;;0.20;84.60;;;;;;5048612;28;20517;-64
2023/11/29 06:07:21;;;;;;;;;;;0.10;84.60;;;;;;5048052;28;20520;-62
2023/11/29 06:09:55;;;;;;;;;;;0.20;84.80;;;;;;5048621;28;20394;-62
2023/11/29 06:12:28;;;;;;;;;;;0.20;84.80;;;;;;5047876;28;19935;-62
2023/11/29 06:15:04;;;;;;;;;;;0.10;84.80;;;;;;5048378;28;19939;-63
2023/11/29 06:17:39;;;;;;;;;;;0.20;84.80;;;;;;5048945;28;19929;-62
2023/11/29 06:20:13;;;;;;;;;;;0.20;84.90;;;;;;5046150;28;19932;-63
2023/11/29 06:22:46;;;;;;;;;;;0.20;84.90;;;;;;5047757;28;22097;-62
2023/11/29 06:25:20;;;;;;;;;;;0.20;84.80;;;;;;5049316;28;19971;-62
2023/11/29 06:27:52;;;;;;;;;;;0.20;84.80;;;;;;5048981;28;19933;-63
2023/11/29 06:30:26;;;;;;;;;;;0.20;85.00;;;;;;5047848;28;19929;-61
2023/11/29 06:33:00;;;;;;;;;;;0.20;85.30;;;;;;5048157;28;19935;-63
2023/11/29 06:35:33;;;;;;;;;;;0.20;85.10;;;;;;5046710;28;19940;-63
2023/11/29 06:38:06;;;;;;;;;;;0.30;85.20;;;;;;5048550;28;19932;-63
2023/11/29 06:40:39;;;;;;;;;;;0.20;85.10;;;;;;5048228;28;19932;-63
2023/11/29 06:43:12;;;;;;;;;;;0.30;85.20;;;;;;5049696;28;20019;-63
2023/11/29 06:45:46;;;;;;;;;;;0.30;85.30;;;;;;5048524;28;20387;-61
2023/11/29 06:48:21;;;;;;;;;;;0.30;85.40;;;;;;5047486;28;19955;-63
2023/11/29 06:50:55;;;;;;;;;;;0.30;85.20;;;;;;5047696;28;19978;-63
2023/11/29 06:53:28;;;;;;;;;;;0.40;85.20;;;;;;5046898;28;19925;-62
2023/11/29 06:56:01;;;;;;;;;;;0.40;85.20;;;;;;5045040;28;19925;-61
2023/11/29 06:58:34;;;;;;;;;;;0.40;85.20;;;;;;5048716;28;19932;-63
2023/11/29 07:01:10;;;;;;;;;;;0.30;85.20;;;;;;5043038;28;20273;-63
2023/11/29 07:03:45;;;;;;;;;;;0.30;85.30;;;;;;5036307;28;19929;-62
2023/11/29 07:06:19;;;;;;;;;;;0.30;85.70;;;;;;5046696;28;19932;-63
2023/11/29 07:08:53;;;;;;;;;;;0.30;85.60;;;;;;5046956;28;19933;-62
2023/11/29 07:11:26;;;;;;;;;;;0.30;85.50;;;;;;5049384;28;19929;-63
2023/11/29 07:13:59;;;;;;;;;;;0.30;85.70;;;;;;5048182;28;20417;-63
2023/11/29 07:16:32;;;;;;;;;;;0.30;85.70;;;;;;5028678;28;20299;-63
2023/11/29 07:19:09;;;;;;;;;;;0.30;85.80;;;;;;5047440;28;20046;-63
2023/11/29 07:21:43;;;;;;;;;;;0.40;85.70;;;;;;5027763;28;19960;-61
2023/11/29 07:24:16;;;;;;;;;;;0.40;85.70;;;;;;5051590;28;20012;-62
2023/11/29 07:26:49;;;;;;;;;;;0.50;85.60;;;;;;5052656;28;19932;-62
2023/11/29 07:29:22;;;;;;;;;;;0.40;85.60;;;;;;5053840;28;19999;-62
2023/11/29 07:31:55;;;;;;;;;;;0.50;85.70;;;;;;5035826;28;19925;-75
2023/11/29 07:34:29;;;;;;;;;;;0.50;85.60;;;;;;5053027;28;20019;-73
2023/11/29 07:37:03;;;;;;;;;;;0.60;85.60;;;;;;5053447;28;19948;-75
2023/11/29 07:39:37;;;;;;;;;;;0.60;85.50;;;;;;5051779;28;19936;-73
2023/11/29 07:42:09;;;;;;;;;;;0.50;85.80;;;;;;5051530;28;19933;-74
2023/11/29 07:44:43;;;;;;;;;;;0.50;86.00;;;;;;5052330;28;19979;-73
2023/11/29 07:47:16;;;;;;;;;;;0.50;86.00;;;;;;5053562;28;19929;-74
2023/11/29 07:49:50;;;;;;;;;;;0.50;86.00;;;;;;5052732;28;19925;-74
2023/11/29 07:52:30;;;;;;;;;;;0.60;86.00;;;;;;5050978;28;19933;-75
2023/11/29 07:55:04;;;;;;;;;;;0.70;86.00;;;;;;5052062;28;20453;-71
2023/11/29 07:57:37;;;;;;;;;;;0.70;85.80;;;;;;5051816;28;19975;-73
2023/11/29 08:00:12;;;;;;;;;;;0.70;85.90;;;;;;5051020;28;20012;-73
2023/11/29 08:02:46;;;;;;;;;;;0.60;86.00;;;;;;5052047;28;19924;-79
2023/11/29 08:05:24;;;;;;;;;;;0.60;86.10;;;;;;5052204;28;20011;-73
2023/11/29 08:07:58;;;;;;;;;;;0.70;86.10;;;;;;5053612;28;19925;-75
2023/11/29 08:10:31;;;;;;;;;;;0.70;86.10;;;;;;5052619;28;19940;-75
2023/11/29 08:13:05;;;;;;;;;;;0.70;86.10;;;;;;5047473;28;19928;-74
2023/11/29 08:15:38;;;;;;;;;;;0.80;86.20;;;;;;5051319;28;20015;-73
2023/11/29 08:18:12;;;;;;;;;;;0.80;86.10;;;;;;5048493;28;19932;-74
2023/11/29 08:20:47;;;;;;;;;;;0.80;86.10;;;;;;5051742;28;19925;-75
2023/11/29 08:23:27;;;;;;;;;;;0.90;86.00;;;;;;5051846;28;20419;-75
2023/11/29 08:26:01;;;;;;;;;;;0.90;86.10;;;;;;5050584;28;19933;-74
2023/11/29 08:28:34;;;;;;;;;;;0.90;86.00;;;;;;5049591;28;19936;-73
2023/11/29 08:31:07;;;;;;;;;;;0.90;86.00;;;;;;5049807;28;19925;-75
2023/11/29 08:33:40;;;;;;;;;;;0.90;86.10;;;;;;5049590;28;20011;-76
2023/11/29 08:36:17;;;;;;;;;;;1.00;86.20;;;;;;5052251;28;19929;-73
2023/11/29 08:38:51;;;;;;;;;;;1.10;86.10;;;;;;5053974;28;19936;-74
2023/11/29 08:41:25;;;;;;;;;;;1.10;86.10;;;;;;5048892;28;19924;-62
2023/11/29 08:43:58;;;;;;;;;;;1.10;86.00;;;;;;5051114;28;19925;-63
2023/11/29 08:46:31;;;;;;;;;;;1.20;86.00;;;;;;5051948;28;19928;-61
2023/11/29 08:49:04;;;;;;;;;;;1.20;85.90;;;;;;5051571;28;19932;-66
2023/11/29 08:51:38;;;;;;;;;;;1.30;85.90;;;;;;5051910;28;19925;-64
2023/11/29 08:54:12;;;;;;;;;;;1.30;85.80;;;;;;5048946;28;19936;-63
2023/11/29 08:56:46;;;;;;;;;;;1.20;85.80;;;;;;5051043;28;20043;-64
2023/11/29 08:59:19;;;;;;;;;;;1.30;85.90;;;;;;5049090;28;20376;-62
2023/11/29 09:01:53;;;;;;;;;;;1.30;85.90;;;;;;5051639;28;19925;-62
2023/11/29 09:04:26;;;;;;;;;;;1.30;86.10;;;;;;5048940;28;19925;-62
2023/11/29 09:07:04;;;;;;;;;;;1.40;85.90;;;;;;5049947;28;19925;-63
2023/11/29 09:09:38;;;;;;;;;;;1.40;85.90;;;;;;5048642;28;19928;-62
2023/11/29 09:12:11;;;;;;;;;;;1.50;85.80;;;;;;5049168;28;19932;-63
2023/11/29 09:14:45;;;;;;;;;;;1.50;85.70;;;;;;5049581;28;19928;-62
2023/11/29 09:17:18;;;;;;;;;;;1.50;85.80;;;;;;5049055;28;20032;-62
2023/11/29 09:19:51;;;;;;;;;;;1.50;85.90;;;;;;5048702;28;19929;-63
2023/11/29 09:22:26;;;;;;;;;;;1.50;85.90;;;;;;5049850;28;19939;-62
2023/11/29 09:25:00;;;;;;;;;;;1.60;86.00;;;;;;5049642;28;20339;-61
2023/11/29 09:27:34;;;;;;;;;;;1.50;86.00;;;;;;5047818;28;19939;-61
2023/11/29 09:30:07;;;;;;;;;;;1.40;86.10;;;;;;5049015;28;19925;-63
2023/11/29 09:32:41;;;;;;;;;;;1.50;86.50;;;;;;5050340;28;19999;-63
2023/11/29 09:35:14;;;;;;;;;;;1.50;86.50;;;;;;5049450;28;19933;-63
2023/11/29 09:37:48;;;;;;;;;;;1.50;86.40;;;;;;5049176;28;20445;-63
2023/11/29 09:40:22;;;;;;;;;;;1.50;86.70;;;;;;5048369;28;19998;-63
2023/11/29 09:42:55;;;;;;;;;;;1.50;86.50;;;;;;5044997;28;19968;-62
2023/11/29 09:45:28;;;;;;;;;;;1.50;86.60;;;;;;5047959;28;19961;-61
2023/11/29 09:47:56;;;;;;;;;;;1.60;86.80;;;;;;5048464;28;19972;-62
2023/11/29 09:50:29;;;;;;;;;;;1.50;86.70;;;;;;5047396;28;19925;-62
2023/11/29 09:53:03;;;;;;;;;;;1.60;86.70;;;;;;5050773;28;20291;-61
2023/11/29 09:55:37;;;;;;;;;;;1.60;86.70;;;;;;5051232;28;19936;-63
2023/11/29 09:58:10;;;;;;;;;;;1.60;86.80;;;;;;5049525;28;19936;-63
2023/11/29 10:00:45;;;;;;;;;;;1.60;86.80;;;;;;5052214;28;19924;-63
2023/11/29 10:03:20;;;;;;;;;;;1.60;86.70;;;;;;5048826;28;19956;-63
2023/11/29 10:05:54;;;;;;;;;;;1.50;87.20;;;;;;5050234;28;19998;-63
2023/11/29 10:08:28;;;;;;;;;;;1.60;87.00;;;;;;5046967;28;19981;-63
2023/11/29 10:11:02;;;;;;;;;;;1.60;86.90;;;;;;5050322;28;19955;-62
2023/11/29 10:13:35;;;;;;;;;;;1.60;87.00;;;;;;5050069;28;19928;-63
2023/11/29 10:16:08;;;;;;;;;;;1.60;87.10;;;;;;5041527;28;19929;-62
2023/11/29 10:18:34;;;;;;;;;;;1.60;87.30;;;;;;5048025;28;19978;-62
2023/11/29 10:21:08;;;;;;;;;;;1.60;87.30;;;;;;5050805;28;20421;-63
2023/11/29 10:23:44;;;;;;;;;;;1.60;87.50;;;;;;5047966;28;20375;-62
2023/11/29 10:26:18;;;;;;;;;;;1.50;87.70;;;;;;5049379;28;19928;-62
2023/11/29 10:28:51;;;;;;;;;;;1.60;87.80;;;;;;5048121;28;19970;-62
2023/11/29 10:31:25;;;;;;;;;;;1.60;88.00;;;;;;5049300;28;20040;-63
2023/11/29 10:33:59;;;;;;;;;;;1.60;88.00;;;;;;5046627;28;19940;-63
2023/11/29 10:36:33;;;;;;;;;;;1.70;87.90;;;;;;5049214;28;19932;-62
2023/11/29 10:39:09;;;;;;;;;;;1.70;87.90;;;;;;5049149;28;19956;-62
2023/11/29 10:41:44;;;;;;;;;;;1.70;87.80;;;;;;5046773;28;19925;-62
2023/11/29 10:44:21;;;;;;;;;;;1.60;87.70;;;;;;5046233;28;20008;-63
2023/11/29 10:46:59;;;;;;;;;;;1.70;87.70;;;;;;5048568;28;19952;-62
2023/11/29 10:49:34;;;;;;;;;;;1.70;87.70;;;;;;5049169;28;20012;-64
2023/11/29 10:52:08;;;;;;;;;;;1.70;87.70;;;;;;5048368;28;19929;-62
2023/11/29 10:54:45;;;;;;;;;;;1.70;87.60;;;;;;5050420;28;19987;-62
2023/11/29 10:57:20;;;;;;;;;;;1.70;87.70;;;;;;5050588;28;19929;-62
2023/11/29 11:00:04;;;;;;;;;;;1.80;87.70;;;;;;5048972;28;19925;-62
2023/11/29 11:02:38;;;;;;;;;;;1.70;87.80;;;;;;5049731;28;20011;-62
2023/11/29 11:05:11;;;;;;;;;;;1.70;87.80;;;;;;5051299;28;19924;-63
2023/11/29 11:07:44;;;;;;;;;;;1.80;87.80;;;;;;5054348;28;19924;-62
2023/11/29 11:10:22;;;;;;;;;;;1.80;87.80;;;;;;5055343;28;19932;-63
2023/11/29 11:12:56;;;;;;;;;;;1.80;87.80;;;;;;5057114;28;19929;-62
2023/11/29 11:15:29;;;;;;;;;;;1.70;87.90;;;;;;5051098;28;19979;-61
2023/11/29 11:18:23;;;;;;;;;;;1.80;88.00;;;;;;5050416;28;19935;-62
2023/11/29 11:20:59;;;;;;;;;;;1.90;87.80;;;;;;5051856;28;19929;-61
2023/11/29 11:23:35;;;;;;;;;;;1.80;87.90;;;;;;5036009;28;19995;-62
2023/11/29 11:26:10;;;;;;;;;;;1.90;87.80;;;;;;5050671;28;20007;-62
2023/11/29 11:28:44;;;;;;;;;;;1.90;87.80;;;;;;5050421;28;19951;-61
2023/11/29 11:31:18;;;;;;;;;;;1.90;87.90;;;;;;5049489;28;20023;-64
2023/11/29 11:34:09;;;;;;;;;;;1.90;87.80;;;;;;5053147;28;19933;-63
2023/11/29 11:36:45;;;;;;;;;;;1.90;88.00;;;;;;5050396;28;19986;-63
2023/11/29 11:39:18;;;;;;;;;;;2.00;87.90;;;;;;5051195;28;19929;-62
2023/11/29 11:41:52;;;;;;;;;;;2.00;87.70;;;;;;5048753;28;19939;-62
2023/11/29 11:44:27;;;;;;;;;;;2.00;87.70;;;;;;5048385;28;19944;-62
2023/11/29 11:47:01;;;;;;;;;;;2.00;87.60;;;;;;5048604;28;19970;-63
2023/11/29 11:49:34;;;;;;;;;;;2.00;87.70;;;;;;5048530;28;20008;-61
2023/11/29 11:52:07;;;;;;;;;;;2.00;87.80;;;;;;5047489;28;19929;-63
2023/11/29 11:54:40;;;;;;;;;;;2.00;87.60;;;;;;5048325;28;19955;-65
2023/11/29 11:57:15;;;;;;;;;;;2.00;87.60;;;;;;5048820;28;20501;-62
2023/11/29 11:59:48;;;;;;;;;;;2.00;87.80;;;;;;5046803;28;19924;-62
2023/11/29 12:02:21;;;;;;;;;;;2.00;87.70;;;;;;5046277;28;20387;-62
2023/11/29 12:04:54;;;;;;;;;;;2.10;87.90;;;;;;5048750;28;20276;-63
2023/11/29 12:07:28;;;;;;;;;;;2.00;87.70;;;;;;5048965;28;20051;-62
2023/11/29 12:10:05;;;;;;;;;;;2.10;87.80;;;;;;5048246;28;20432;-64
2023/11/29 12:12:40;;;;;;;;;;;2.00;88.00;;;;;;5051291;28;20027;-63
2023/11/29 12:15:07;;;;;;;;;;;2.10;88.00;;;;;;5050578;28;19936;-64
2023/11/29 12:17:40;;;;;;;;;;;2.10;87.90;;;;;;5048989;28;20801;-63
2023/11/29 12:20:13;;;;;;;;;;;2.10;87.80;;;;;;5052421;28;19952;-63
2023/11/29 12:22:48;;;;;;;;;;;2.10;87.90;;;;;;5050509;28;20019;-63
2023/11/29 12:25:21;;;;;;;;;;;2.10;87.90;;;;;;5052099;28;19931;-63
2023/11/29 12:27:55;;;;;;;;;;;2.20;87.90;;;;;;5051579;28;20279;-62
2023/11/29 12:30:32;;;;;;;;;;;2.20;87.80;;;;;;5047195;28;19936;-64
2023/11/29 12:33:05;;;;;;;;;;;2.20;87.70;;;;;;5048343;28;20294;-62
2023/11/29 12:35:38;;;;;;;;;;;2.20;87.80;;;;;;5049992;28;19935;-62
2023/11/29 12:38:12;;;;;;;;;;;2.30;87.90;;;;;;5052249;28;19936;-63
2023/11/29 12:40:45;;;;;;;;;;;2.30;87.90;;;;;;5049690;28;19937;-63
2023/11/29 12:43:19;;;;;;;;;;;2.20;87.90;;;;;;5051658;28;19924;-62
2023/11/29 12:45:53;;;;;;;;;;;2.30;87.90;;;;;;5048005;28;20372;-62
2023/11/29 12:48:26;;;;;;;;;;;2.30;87.70;;;;;;5050653;28;19929;-62
2023/11/29 12:50:59;;;;;;;;;;;2.30;87.90;;;;;;5050524;28;20060;-62
2023/11/29 12:53:32;;;;;;;;;;;2.30;87.80;;;;;;5051397;28;19935;-63
2023/11/29 12:56:05;;;;;;;;;;;2.20;87.80;;;;;;5051676;28;20020;-64
2023/11/29 12:58:40;;;;;;;;;;;2.30;87.90;;;;;;5051642;28;19928;-63
2023/11/29 13:01:14;;;;;;;;;;;2.30;88.00;;;;;;5050742;28;19948;-63
2023/11/29 13:03:50;;;;;;;;;;;2.30;87.90;;;;;;5049829;28;19951;-63
2023/11/29 13:06:24;;;;;;;;;;;2.30;87.70;;;;;;5048371;28;19929;-63
2023/11/29 13:08:58;;;;;;;;;;;2.30;87.90;;;;;;5048938;28;19956;-62
2023/11/29 13:11:31;;;;;;;;;;;2.30;87.90;;;;;;5052372;28;19925;-62
2023/11/29 13:14:06;;;;;;;;;;;2.30;87.80;;;;;;5049615;28;19924;-69
2023/11/29 13:16:42;;;;;;;;;;;2.30;87.80;;;;;;5052361;28;19987;-65
2023/11/29 13:19:16;;;;;;;;;;;2.30;88.00;;;;;;5048933;28;19928;-62
2023/11/29 13:21:49;;;;;;;;;;;2.30;87.90;;;;;;5050124;28;20371;-62
2023/11/29 13:24:22;;;;;;;;;;;2.30;88.10;;;;;;5047001;28;20332;-63
2023/11/29 13:26:55;;;;;;;;;;;2.40;87.90;;;;;;5050460;28;19932;-62
2023/11/29 13:29:29;;;;;;;;;;;2.30;88.00;;;;;;5050560;28;20131;-62
2023/11/29 13:32:03;;;;;;;;;;;2.30;88.10;;;;;;5050902;28;19925;-62
2023/11/29 13:34:40;;;;;;;;;;;2.30;88.10;;;;;;5049779;28;19925;-63
2023/11/29 13:37:14;;;;;;;;;;;2.40;88.00;;;;;;5047768;28;19951;-64
2023/11/29 13:39:47;;;;;;;;;;;2.40;88.00;;;;;;5040033;28;19982;-64
2023/11/29 13:42:20;;;;;;;;;;;2.40;88.00;;;;;;5050092;28;19935;-63
2023/11/29 13:44:56;;;;;;;;;;;2.40;88.00;;;;;;5052998;28;20015;-62
2023/11/29 13:47:30;;;;;;;;;;;2.40;88.20;;;;;;5049634;28;19936;-63
2023/11/29 13:50:04;;;;;;;;;;;2.40;88.10;;;;;;5040383;28;19932;-62
2023/11/29 13:52:37;;;;;;;;;;;2.50;88.00;;;;;;5049276;28;19928;-62
2023/11/29 13:55:10;;;;;;;;;;;2.50;88.00;;;;;;5050078;28;19978;-63
2023/11/29 13:57:43;;;;;;;;;;;2.50;87.80;;;;;;5025117;28;19932;-63
2023/11/29 14:00:18;;;;;;;;;;;2.50;87.90;;;;;;5050623;28;19928;-63
2023/11/29 14:02:52;;;;;;;;;;;2.50;88.00;;;;;;5041902;28;19929;-63
2023/11/29 14:05:25;;;;;;;;;;;2.50;87.90;;;;;;5048183;28;19925;-63
2023/11/29 14:07:58;;;;;;;;;;;2.50;87.90;;;;;;5049679;28;19929;-63
2023/11/29 14:10:34;;;;;;;;;;;2.50;87.90;;;;;;5031504;28;20003;-64
2023/11/29 14:13:07;;;;;;;;;;;2.60;87.80;;;;;;5047197;28;20025;-63
2023/11/29 14:15:41;;;;;;;;;;;2.60;87.80;;;;;;5050455;28;19925;-63
2023/11/29 14:18:15;;;;;;;;;;;2.60;87.80;;;;;;5048932;28;19932;-63
2023/11/29 14:20:42;;;;;;;;;;;2.60;87.70;;;;;;5048982;28;19933;-63
2023/11/29 14:23:22;;;;;;;;;;;2.60;87.80;;;;;;5050163;28;19929;-63
2023/11/29 14:25:56;;;;;;;;;;;2.60;87.80;;;;;;5051962;28;19925;-62
2023/11/29 14:28:34;;;;;;;;;;;2.60;87.80;;;;;;5050604;28;19933;-63
2023/11/29 14:31:08;;;;;;;;;;;2.60;87.80;;;;;;5050135;28;20036;-64
2023/11/29 14:33:42;;;;;;;;;;;2.60;87.80;;;;;;5049493;28;19936;-63
2023/11/29 14:36:15;;;;;;;;;;;2.60;87.90;;;;;;5047470;28;19929;-64
2023/11/29 14:38:48;;;;;;;;;;;2.60;87.70;;;;;;5047918;28;19933;-63
2023/11/29 14:41:27;;;;;;;;;;;2.70;87.80;;;;;;5048340;28;20453;-63
2023/11/29 14:44:03;;;;;;;;;;;2.70;87.70;;;;;;5050507;28;19929;-62
2023/11/29 14:46:37;;;;;;;;;;;2.70;87.60;;;;;;5022986;28;20488;-63
2023/11/29 14:49:14;;;;;;;;;;;2.70;87.60;;;;;;5048636;28;19925;-63
2023/11/29 14:51:48;;;;;;;;;;;2.70;87.70;;;;;;5050537;28;19933;-63
2023/11/29 14:54:22;;;;;;;;;;;2.60;87.70;;;;;;5024622;28;20383;-62
2023/11/29 14:56:55;;;;;;;;;;;2.50;87.90;;;;;;5050331;28;20375;-62
2023/11/29 14:59:28;;;;;;;;;;;2.50;88.00;;;;;;5049153;28;19951;-63
2023/11/29 15:02:02;;;;;;;;;;;2.50;88.00;;;;;;5050191;28;19940;-64
2023/11/29 15:04:37;;;;;;;;;;;2.60;88.00;;;;;;5048599;28;19971;-63
2023/11/29 15:07:10;;;;;;;;;;;2.60;87.90;;;;;;5046260;28;19924;-62
2023/11/29 15:09:43;;;;;;;;;;;2.60;88.00;;;;;;5044156;28;19940;-64